createdAt,value
2022-12-19T00:00:27.289Z,994.55
2022-12-19T00:01:27.328Z,994.56
2022-12-19T00:02:27.356Z,994.58
2022-12-19T00:03:27.376Z,994.54
2022-12-19T00:04:27.270Z,994.59
2022-12-19T00:05:27.240Z,994.65
2022-12-19T00:06:27.221Z,994.59
2022-12-19T00:07:27.211Z,994.60
2022-12-19T00:08:27.210Z,994.61
2022-12-19T00:09:27.198Z,994.61
2022-12-19T00:10:27.212Z,994.64
2022-12-19T00:11:27.160Z,994.61
2022-12-19T00:12:27.149Z,994.62
2022-12-19T00:13:27.161Z,994.65
2022-12-19T00:14:27.142Z,994.63
2022-12-19T00:15:27.128Z,994.56
2022-12-19T00:16:27.178Z,994.55
2022-12-19T00:17:27.117Z,994.52
2022-12-19T00:18:27.099Z,994.53
2022-12-19T00:19:27.100Z,994.58
2022-12-19T00:20:27.069Z,994.46
2022-12-19T00:21:27.088Z,994.43
2022-12-19T00:22:27.050Z,994.42
2022-12-19T00:23:27.069Z,994.42
2022-12-19T00:24:27.040Z,994.44
2022-12-19T00:25:27.020Z,994.46
2022-12-19T00:26:27.041Z,994.40
2022-12-19T00:27:27.001Z,994.46
2022-12-19T00:28:26.980Z,994.48
2022-12-19T00:29:26.999Z,994.50
2022-12-19T00:30:26.959Z,994.49
2022-12-19T00:31:27.023Z,994.43
2022-12-19T00:32:26.963Z,994.38
2022-12-19T00:33:26.949Z,994.39
2022-12-19T00:34:26.948Z,994.47
2022-12-19T00:35:26.919Z,994.40
2022-12-19T00:36:26.918Z,994.30
2022-12-19T00:37:26.898Z,994.37
2022-12-19T00:38:26.889Z,994.32
2022-12-19T00:39:26.897Z,994.29
2022-12-19T00:40:26.882Z,994.32
2022-12-19T00:41:26.870Z,994.27
2022-12-19T00:42:26.852Z,994.18
2022-12-19T00:43:26.851Z,994.15
2022-12-19T00:44:26.820Z,994.17
2022-12-19T00:45:26.878Z,994.13
2022-12-19T00:46:26.817Z,994.08
2022-12-19T00:47:26.798Z,994.04
2022-12-19T00:48:26.780Z,993.97
2022-12-19T00:49:26.799Z,994.00
2022-12-19T00:50:26.781Z,994.00
2022-12-19T00:51:26.759Z,993.96
2022-12-19T00:52:26.740Z,993.90
2022-12-19T00:53:26.741Z,993.98
2022-12-19T00:54:26.775Z,994.03
2022-12-19T00:55:27.026Z,993.97
2022-12-19T00:56:26.718Z,994.09
2022-12-19T00:57:26.690Z,994.10
2022-12-19T00:58:26.679Z,994.17
2022-12-19T00:59:27.144Z,994.15
2022-12-19T01:00:26.701Z,994.07
2022-12-19T01:01:26.774Z,994.10
2022-12-19T01:02:26.851Z,994.07
2022-12-19T01:03:26.640Z,994.08
2022-12-19T01:04:28.651Z,993.99
2022-12-19T01:05:26.631Z,993.95
2022-12-19T01:06:26.610Z,993.90
2022-12-19T01:07:26.590Z,993.90
2022-12-19T01:08:26.589Z,993.95
2022-12-19T01:09:26.749Z,993.96
2022-12-19T01:10:26.551Z,993.92
2022-12-19T01:11:26.561Z,993.97
2022-12-19T01:12:26.549Z,993.94
2022-12-19T01:13:26.536Z,993.93
2022-12-19T01:14:26.539Z,993.88
2022-12-19T01:15:26.520Z,993.85
2022-12-19T01:16:26.601Z,993.88
2022-12-19T01:17:26.480Z,993.83
2022-12-19T01:18:26.471Z,993.78
2022-12-19T01:19:26.461Z,993.79
2022-12-19T01:20:29.552Z,993.87
2022-12-19T01:21:26.447Z,993.78
2022-12-19T01:22:26.440Z,993.75
2022-12-19T01:23:26.420Z,993.81
2022-12-19T01:24:26.410Z,993.86
2022-12-19T01:25:26.417Z,993.85
2022-12-19T01:26:26.402Z,993.91
2022-12-19T01:27:26.391Z,993.89
2022-12-19T01:28:26.361Z,993.82
2022-12-19T01:29:26.384Z,993.83
2022-12-19T01:30:26.359Z,993.85
2022-12-19T01:31:26.385Z,993.93
2022-12-19T01:32:26.350Z,993.98
2022-12-19T01:33:26.340Z,993.99
2022-12-19T01:34:26.311Z,993.90
2022-12-19T01:35:26.320Z,993.81
2022-12-19T01:36:26.280Z,993.81
2022-12-19T01:37:26.290Z,993.89
2022-12-19T01:38:26.290Z,993.73
2022-12-19T01:39:26.901Z,993.78
2022-12-19T01:40:26.269Z,993.82
2022-12-19T01:41:26.248Z,993.76
2022-12-19T01:42:26.240Z,993.84
2022-12-19T01:43:26.220Z,993.81
2022-12-19T01:44:26.200Z,993.75
2022-12-19T01:45:32.039Z,993.79
2022-12-19T01:46:27.525Z,993.75
2022-12-19T01:47:26.180Z,993.75
2022-12-19T01:48:26.159Z,993.67
2022-12-19T01:49:26.159Z,993.53
2022-12-19T01:50:26.159Z,993.54
2022-12-19T01:51:26.155Z,993.56
2022-12-19T01:52:26.131Z,993.63
2022-12-19T01:53:26.120Z,993.70
2022-12-19T01:54:26.099Z,993.57
2022-12-19T01:55:26.100Z,993.56
2022-12-19T01:56:26.076Z,993.55
2022-12-19T01:57:26.039Z,993.50
2022-12-19T01:58:26.038Z,993.47
2022-12-19T01:59:26.019Z,993.50
2022-12-19T02:00:26.006Z,993.51
2022-12-19T02:01:26.089Z,993.40
2022-12-19T02:02:26.215Z,993.47
2022-12-19T02:03:26.072Z,993.30
2022-12-19T02:04:25.978Z,993.41
2022-12-19T02:05:25.992Z,993.38
2022-12-19T02:06:25.959Z,993.39
2022-12-19T02:07:25.950Z,993.33
2022-12-19T02:08:25.998Z,993.36
2022-12-19T02:09:25.920Z,993.30
2022-12-19T02:10:25.926Z,993.34
2022-12-19T02:11:25.910Z,993.36
2022-12-19T02:12:25.890Z,993.32
2022-12-19T02:13:25.886Z,993.33
2022-12-19T02:14:25.892Z,993.36
2022-12-19T02:15:25.861Z,993.32
2022-12-19T02:16:26.377Z,993.30
2022-12-19T02:17:25.853Z,993.30
2022-12-19T02:18:25.833Z,993.25
2022-12-19T02:19:25.956Z,993.33
2022-12-19T02:20:25.821Z,993.27
2022-12-19T02:21:25.814Z,993.36
2022-12-19T02:22:25.819Z,993.29
2022-12-19T02:23:25.784Z,993.22
2022-12-19T02:24:25.763Z,993.26
2022-12-19T02:25:25.767Z,993.19
2022-12-19T02:26:25.754Z,993.28
2022-12-19T02:27:25.739Z,993.28
2022-12-19T02:28:25.737Z,993.27
2022-12-19T02:29:25.718Z,993.33
2022-12-19T02:30:25.743Z,993.33
2022-12-19T02:31:25.765Z,993.30
2022-12-19T02:32:25.728Z,993.28
2022-12-19T02:33:25.725Z,993.28
2022-12-19T02:34:25.731Z,993.33
2022-12-19T02:35:25.676Z,993.35
2022-12-19T02:36:25.668Z,993.33
2022-12-19T02:37:25.677Z,993.28
2022-12-19T02:38:25.667Z,993.24
2022-12-19T02:39:25.640Z,993.19
2022-12-19T02:40:25.632Z,993.16
2022-12-19T02:41:25.643Z,993.16
2022-12-19T02:42:25.630Z,993.21
2022-12-19T02:43:25.610Z,993.13
2022-12-19T02:44:25.592Z,993.17
2022-12-19T02:45:28.740Z,993.17
2022-12-19T02:46:25.674Z,993.16
2022-12-19T02:47:25.564Z,993.06
2022-12-19T02:48:25.577Z,993.05
2022-12-19T02:49:31.117Z,993.15
2022-12-19T02:50:26.545Z,993.18
2022-12-19T02:51:25.534Z,993.21
2022-12-19T02:52:25.547Z,993.22
2022-12-19T02:53:25.499Z,993.24
2022-12-19T02:54:25.518Z,993.25
2022-12-19T02:55:25.506Z,993.23
2022-12-19T02:56:25.485Z,993.30
2022-12-19T02:57:25.458Z,993.22
2022-12-19T02:58:25.468Z,993.28
2022-12-19T02:59:25.454Z,993.19
2022-12-19T03:00:25.468Z,993.31
2022-12-19T03:01:25.550Z,993.30
2022-12-19T03:02:25.573Z,993.32
2022-12-19T03:03:25.439Z,993.37
2022-12-19T03:04:25.392Z,993.35
2022-12-19T03:05:25.406Z,993.29
2022-12-19T03:06:25.418Z,993.29
2022-12-19T03:07:25.364Z,993.18
2022-12-19T03:08:25.373Z,993.18
2022-12-19T03:09:25.343Z,993.18
2022-12-19T03:10:25.344Z,993.12
2022-12-19T03:11:25.332Z,993.06
2022-12-19T03:12:25.335Z,993.13
2022-12-19T03:13:25.326Z,993.14
2022-12-19T03:14:25.292Z,993.14
2022-12-19T03:15:25.306Z,993.17
2022-12-19T03:16:25.356Z,993.19
2022-12-19T03:17:25.287Z,993.17
2022-12-19T03:18:25.266Z,993.16
2022-12-19T03:19:25.260Z,993.19
2022-12-19T03:20:25.238Z,993.27
2022-12-19T03:21:25.246Z,993.32
2022-12-19T03:22:25.239Z,993.30
2022-12-19T03:23:25.218Z,993.19
2022-12-19T03:24:25.190Z,993.22
2022-12-19T03:25:25.198Z,993.26
2022-12-19T03:26:25.209Z,993.29
2022-12-19T03:27:25.182Z,993.36
2022-12-19T03:28:25.150Z,993.39
2022-12-19T03:29:25.152Z,993.40
2022-12-19T03:30:25.150Z,993.47
2022-12-19T03:31:25.141Z,993.54
2022-12-19T03:32:25.125Z,993.56
2022-12-19T03:33:25.115Z,993.50
2022-12-19T03:34:25.112Z,993.42
2022-12-19T03:35:25.101Z,993.41
2022-12-19T03:36:25.080Z,993.45
2022-12-19T03:37:25.085Z,993.49
2022-12-19T03:38:25.054Z,993.46
2022-12-19T03:39:25.074Z,993.46
2022-12-19T03:40:25.041Z,993.51
2022-12-19T03:41:25.043Z,993.52
2022-12-19T03:42:25.044Z,993.42
2022-12-19T03:43:25.025Z,993.43
2022-12-19T03:44:25.003Z,993.47
2022-12-19T03:45:25.004Z,993.45
2022-12-19T03:46:25.025Z,993.34
2022-12-19T03:47:24.977Z,993.35
2022-12-19T03:48:24.957Z,993.34
2022-12-19T03:49:24.969Z,993.28
2022-12-19T03:50:24.938Z,993.35
2022-12-19T03:51:24.927Z,993.34
2022-12-19T03:52:24.927Z,993.35
2022-12-19T03:53:24.923Z,993.36
2022-12-19T03:54:24.891Z,993.35
2022-12-19T03:55:24.905Z,993.42
2022-12-19T03:56:24.889Z,993.38
2022-12-19T03:57:24.856Z,993.32
2022-12-19T03:58:24.858Z,993.32
2022-12-19T03:59:24.861Z,993.24
2022-12-19T04:00:24.837Z,993.26
2022-12-19T04:01:24.915Z,993.30
2022-12-19T04:02:24.957Z,993.32
2022-12-19T04:03:24.860Z,993.29
2022-12-19T04:04:24.807Z,993.28
2022-12-19T04:05:24.798Z,993.31
2022-12-19T04:06:24.787Z,993.33
2022-12-19T04:07:24.769Z,993.35
2022-12-19T04:08:24.758Z,993.36
2022-12-19T04:09:24.749Z,993.40
2022-12-19T04:10:24.728Z,993.49
2022-12-19T04:11:24.744Z,993.35
2022-12-19T04:12:24.722Z,993.38
2022-12-19T04:13:24.710Z,993.47
2022-12-19T04:14:24.710Z,993.44
2022-12-19T04:15:24.678Z,993.44
2022-12-19T04:16:24.664Z,993.47
2022-12-19T04:17:24.679Z,993.43
2022-12-19T04:18:24.670Z,993.45
2022-12-19T04:19:24.641Z,993.41
2022-12-19T04:20:24.642Z,993.42
2022-12-19T04:21:24.654Z,993.43
2022-12-19T04:22:24.602Z,993.40
2022-12-19T04:23:24.616Z,993.41
2022-12-19T04:24:24.601Z,993.43
2022-12-19T04:25:29.164Z,993.46
2022-12-19T04:26:25.571Z,993.44
2022-12-19T04:27:24.572Z,993.47
2022-12-19T04:28:24.554Z,993.49
2022-12-19T04:29:24.532Z,993.47
2022-12-19T04:30:24.541Z,993.41
2022-12-19T04:31:24.616Z,993.51
2022-12-19T04:32:24.503Z,993.45
2022-12-19T04:33:24.516Z,993.50
2022-12-19T04:34:24.479Z,993.43
2022-12-19T04:35:24.500Z,993.48
2022-12-19T04:36:24.471Z,993.48
2022-12-19T04:37:24.461Z,993.50
2022-12-19T04:38:24.447Z,993.48
2022-12-19T04:39:24.451Z,993.51
2022-12-19T04:40:24.421Z,993.48
2022-12-19T04:41:24.431Z,993.50
2022-12-19T04:42:24.408Z,993.45
2022-12-19T04:43:24.393Z,993.53
2022-12-19T04:44:24.409Z,993.53
2022-12-19T04:45:24.390Z,993.57
2022-12-19T04:46:24.404Z,993.53
2022-12-19T04:47:24.382Z,993.56
2022-12-19T04:48:24.333Z,993.48
2022-12-19T04:49:24.366Z,993.44
2022-12-19T04:50:24.339Z,993.49
2022-12-19T04:51:24.304Z,993.46
2022-12-19T04:52:24.364Z,993.49
2022-12-19T04:53:24.303Z,993.46
2022-12-19T04:54:24.274Z,993.40
2022-12-19T04:55:24.288Z,993.36
2022-12-19T04:56:24.263Z,993.39
2022-12-19T04:57:24.240Z,993.38
2022-12-19T04:58:24.230Z,993.33
2022-12-19T04:59:25.251Z,993.36
2022-12-19T05:00:24.228Z,993.38
2022-12-19T05:01:24.295Z,993.41
2022-12-19T05:02:24.398Z,993.36
2022-12-19T05:03:24.227Z,993.38
2022-12-19T05:04:24.180Z,993.44
2022-12-19T05:05:25.180Z,993.40
2022-12-19T05:06:24.163Z,993.45
2022-12-19T05:07:24.162Z,993.41
2022-12-19T05:08:24.141Z,993.35
2022-12-19T05:09:24.120Z,993.29
2022-12-19T05:10:24.135Z,993.37
2022-12-19T05:11:24.117Z,993.35
2022-12-19T05:12:24.080Z,993.31
2022-12-19T05:13:24.089Z,993.26
2022-12-19T05:14:24.084Z,993.29
2022-12-19T05:15:24.070Z,993.24
2022-12-19T05:16:24.074Z,993.23
2022-12-19T05:17:24.051Z,993.17
2022-12-19T05:18:24.050Z,993.18
2022-12-19T05:19:24.030Z,993.26
2022-12-19T05:20:24.025Z,993.21
2022-12-19T05:21:23.999Z,993.20
2022-12-19T05:22:23.999Z,993.13
2022-12-19T05:23:24.000Z,993.19
2022-12-19T05:24:23.989Z,993.15
2022-12-19T05:25:23.968Z,993.17
2022-12-19T05:26:23.957Z,993.15
2022-12-19T05:27:23.932Z,993.15
2022-12-19T05:28:23.928Z,993.11
2022-12-19T05:29:25.460Z,993.18
2022-12-19T05:30:23.911Z,993.19
2022-12-19T05:31:25.139Z,993.20
2022-12-19T05:32:23.909Z,993.03
2022-12-19T05:33:24.586Z,993.12
2022-12-19T05:34:23.897Z,993.08
2022-12-19T05:35:24.845Z,993.20
2022-12-19T05:36:29.063Z,993.16
2022-12-19T05:37:25.545Z,993.18
2022-12-19T05:38:23.828Z,993.15
2022-12-19T05:39:23.906Z,993.17
2022-12-19T05:40:23.818Z,993.18
2022-12-19T05:41:24.231Z,993.15
2022-12-19T05:42:23.791Z,993.25
2022-12-19T05:43:23.811Z,993.22
2022-12-19T05:44:23.752Z,993.23
2022-12-19T05:45:24.429Z,993.15
2022-12-19T05:46:23.799Z,993.24
2022-12-19T05:47:23.741Z,993.24
2022-12-19T05:48:23.715Z,993.15
2022-12-19T05:49:23.705Z,993.18
2022-12-19T05:50:23.684Z,993.18
2022-12-19T05:51:23.701Z,993.16
2022-12-19T05:52:23.679Z,993.17
2022-12-19T05:53:26.104Z,993.16
2022-12-19T05:54:23.673Z,993.17
2022-12-19T05:55:23.655Z,993.14
2022-12-19T05:56:23.634Z,993.17
2022-12-19T05:57:23.627Z,993.21
2022-12-19T05:58:23.616Z,993.19
2022-12-19T05:59:23.603Z,993.11
2022-12-19T06:00:23.616Z,993.05
2022-12-19T06:01:23.657Z,993.10
2022-12-19T06:02:23.693Z,993.04
2022-12-19T06:03:23.797Z,993.08
2022-12-19T06:04:23.536Z,993.11
2022-12-19T06:05:23.558Z,993.07
2022-12-19T06:06:23.524Z,993.03
2022-12-19T06:07:23.535Z,993.02
2022-12-19T06:08:23.518Z,993.03
2022-12-19T06:09:23.515Z,993.00
2022-12-19T06:10:23.489Z,993.01
2022-12-19T06:11:23.465Z,992.96
2022-12-19T06:12:23.454Z,992.99
2022-12-19T06:13:25.158Z,992.90
2022-12-19T06:14:23.444Z,992.91
2022-12-19T06:15:23.448Z,992.84
2022-12-19T06:16:23.582Z,992.88
2022-12-19T06:17:23.408Z,992.92
2022-12-19T06:18:23.415Z,992.93
2022-12-19T06:19:23.406Z,992.89
2022-12-19T06:20:23.384Z,992.91
2022-12-19T06:21:23.394Z,992.90
2022-12-19T06:22:23.388Z,992.87
2022-12-19T06:23:23.353Z,992.97
2022-12-19T06:24:23.346Z,992.95
2022-12-19T06:25:23.375Z,992.93
2022-12-19T06:26:23.342Z,992.88
2022-12-19T06:27:23.324Z,992.95
2022-12-19T06:28:23.285Z,992.98
2022-12-19T06:29:23.365Z,993.01
2022-12-19T06:30:23.266Z,992.97
2022-12-19T06:31:23.401Z,992.96
2022-12-19T06:32:23.255Z,992.97
2022-12-19T06:33:23.239Z,992.95
2022-12-19T06:34:54.891Z,992.97
2022-12-19T06:35:24.227Z,992.99
2022-12-19T06:36:23.211Z,992.96
2022-12-19T06:37:23.194Z,992.99
2022-12-19T06:38:23.184Z,993.02
2022-12-19T06:39:23.184Z,992.98
2022-12-19T06:40:23.168Z,992.94
2022-12-19T06:41:23.175Z,992.98
2022-12-19T06:42:23.182Z,992.94
2022-12-19T06:43:23.146Z,992.91
2022-12-19T06:44:23.128Z,992.90
2022-12-19T06:45:23.136Z,992.87
2022-12-19T06:46:23.094Z,992.83
2022-12-19T06:47:23.109Z,992.81
2022-12-19T06:48:23.094Z,992.86
2022-12-19T06:49:23.104Z,992.82
2022-12-19T06:50:23.061Z,992.93
2022-12-19T06:51:23.049Z,992.91
2022-12-19T06:52:23.044Z,992.89
2022-12-19T06:53:23.052Z,992.95
2022-12-19T06:54:23.024Z,992.88
2022-12-19T06:55:23.025Z,992.87
2022-12-19T06:56:22.993Z,992.89
2022-12-19T06:57:22.990Z,992.95
2022-12-19T06:58:24.440Z,992.94
2022-12-19T06:59:23.018Z,992.94
2022-12-19T07:00:22.958Z,992.93
2022-12-19T07:01:23.063Z,992.97
2022-12-19T07:02:23.092Z,993.00
2022-12-19T07:03:22.951Z,992.92
2022-12-19T07:04:22.938Z,992.97
2022-12-19T07:05:22.923Z,993.03
2022-12-19T07:06:22.911Z,993.04
2022-12-19T07:07:22.894Z,992.97
2022-12-19T07:08:22.883Z,992.93
2022-12-19T07:09:22.873Z,992.98
2022-12-19T07:10:22.903Z,992.92
2022-12-19T07:11:22.856Z,992.93
2022-12-19T07:12:22.836Z,992.90
2022-12-19T07:13:22.845Z,992.89
2022-12-19T07:14:22.822Z,992.90
2022-12-19T07:15:22.812Z,992.94
2022-12-19T07:16:22.862Z,992.96
2022-12-19T07:17:22.782Z,992.92
2022-12-19T07:18:22.785Z,992.98
2022-12-19T07:19:22.789Z,992.93
2022-12-19T07:20:22.753Z,992.89
2022-12-19T07:21:22.754Z,992.92
2022-12-19T07:22:22.751Z,992.97
2022-12-19T07:23:22.718Z,992.90
2022-12-19T07:24:22.723Z,992.89
2022-12-19T07:25:22.752Z,992.88
2022-12-19T07:26:22.685Z,992.82
2022-12-19T07:27:22.693Z,992.86
2022-12-19T07:28:22.695Z,992.84
2022-12-19T07:29:22.669Z,992.81
2022-12-19T07:30:22.662Z,992.84
2022-12-19T07:31:22.669Z,992.86
2022-12-19T07:32:22.662Z,992.82
2022-12-19T07:33:22.622Z,992.87
2022-12-19T07:34:22.633Z,992.82
2022-12-19T07:35:22.612Z,992.80
2022-12-19T07:36:22.582Z,992.87
2022-12-19T07:37:22.582Z,992.87
2022-12-19T07:38:22.561Z,992.93
2022-12-19T07:39:22.583Z,992.95
2022-12-19T07:40:22.541Z,992.96
2022-12-19T07:41:22.533Z,993.03
2022-12-19T07:42:22.534Z,993.08
2022-12-19T07:43:22.536Z,993.00
2022-12-19T07:44:22.523Z,992.99
2022-12-19T07:45:22.503Z,992.99
2022-12-19T07:46:22.549Z,992.94
2022-12-19T07:47:22.467Z,992.93
2022-12-19T07:48:22.471Z,992.87
2022-12-19T07:49:23.017Z,992.93
2022-12-19T07:50:22.454Z,992.96
2022-12-19T07:51:22.436Z,992.97
2022-12-19T07:52:22.431Z,992.93
2022-12-19T07:53:22.423Z,992.88
2022-12-19T07:54:22.406Z,992.94
2022-12-19T07:55:22.407Z,992.93
2022-12-19T07:56:22.396Z,992.95
2022-12-19T07:57:22.366Z,993.00
2022-12-19T07:58:22.370Z,993.02
2022-12-19T07:59:28.933Z,992.99
2022-12-19T08:00:23.361Z,992.94
2022-12-19T08:01:22.439Z,992.95
2022-12-19T08:02:22.428Z,992.98
2022-12-19T08:03:22.349Z,992.92
2022-12-19T08:04:22.307Z,992.96
2022-12-19T08:05:22.294Z,992.94
2022-12-19T08:06:22.292Z,992.92
2022-12-19T08:07:22.291Z,992.97
2022-12-19T08:08:22.280Z,992.97
2022-12-19T08:09:23.210Z,993.02
2022-12-19T08:10:22.244Z,993.00
2022-12-19T08:11:22.212Z,993.01
2022-12-19T08:12:22.205Z,993.05
2022-12-19T08:13:22.254Z,993.02
2022-12-19T08:14:22.201Z,993.08
2022-12-19T08:15:22.178Z,993.05
2022-12-19T08:16:22.229Z,993.08
2022-12-19T08:17:22.294Z,993.07
2022-12-19T08:18:22.146Z,993.12
2022-12-19T08:19:27.161Z,993.12
2022-12-19T08:20:23.125Z,993.12
2022-12-19T08:21:22.143Z,993.10
2022-12-19T08:22:22.145Z,993.17
2022-12-19T08:23:22.113Z,993.19
2022-12-19T08:24:22.102Z,993.11
2022-12-19T08:25:22.084Z,993.16
2022-12-19T08:26:22.085Z,993.15
2022-12-19T08:27:22.074Z,993.15
2022-12-19T08:28:22.059Z,993.13
2022-12-19T08:29:22.025Z,993.14
2022-12-19T08:30:22.053Z,993.13
2022-12-19T08:31:22.062Z,993.12
2022-12-19T08:32:22.129Z,993.10
2022-12-19T08:33:21.994Z,993.16
2022-12-19T08:34:22.000Z,993.15
2022-12-19T08:35:22.020Z,993.14
2022-12-19T08:36:21.972Z,993.09
2022-12-19T08:37:21.974Z,993.13
2022-12-19T08:38:21.948Z,993.07
2022-12-19T08:39:21.945Z,993.04
2022-12-19T08:40:21.951Z,993.03
2022-12-19T08:41:21.910Z,993.03
2022-12-19T08:42:21.916Z,993.09
2022-12-19T08:43:21.906Z,993.11
2022-12-19T08:44:21.899Z,993.05
2022-12-19T08:45:21.865Z,993.07
2022-12-19T08:46:21.984Z,993.06
2022-12-19T08:47:21.865Z,993.07
2022-12-19T08:48:21.869Z,993.06
2022-12-19T08:49:21.830Z,993.13
2022-12-19T08:50:21.825Z,993.03
2022-12-19T08:51:21.824Z,993.02
2022-12-19T08:52:21.839Z,993.04
2022-12-19T08:53:26.287Z,993.00
2022-12-19T08:54:22.247Z,993.00
2022-12-19T08:55:21.756Z,992.95
2022-12-19T08:56:22.812Z,992.95
2022-12-19T08:57:26.750Z,992.95
2022-12-19T08:58:21.747Z,993.00
2022-12-19T08:59:30.528Z,993.03
2022-12-19T09:00:22.706Z,993.02
2022-12-19T09:01:21.793Z,993.00
2022-12-19T09:02:21.953Z,992.96
2022-12-19T09:03:22.335Z,992.96
2022-12-19T09:05:59.314Z,992.97
2022-12-19T09:06:01.342Z,992.93
2022-12-19T09:06:22.797Z,992.92
2022-12-19T09:07:21.662Z,992.93
2022-12-19T09:08:21.640Z,992.91
2022-12-19T09:09:21.626Z,992.88
2022-12-19T09:10:21.618Z,992.94
2022-12-19T09:11:21.631Z,992.91
2022-12-19T09:12:21.608Z,992.92
2022-12-19T09:13:21.568Z,992.93
2022-12-19T09:14:21.809Z,992.92
2022-12-19T09:15:21.560Z,992.87
2022-12-19T09:16:21.614Z,992.91
2022-12-19T09:17:21.529Z,992.87
2022-12-19T09:18:21.526Z,992.85
2022-12-19T09:19:21.519Z,992.80
2022-12-19T09:20:23.545Z,992.85
2022-12-19T09:21:21.513Z,992.85
2022-12-19T09:22:21.478Z,992.88
2022-12-19T09:23:22.469Z,992.88
2022-12-19T09:24:21.469Z,992.94
2022-12-19T09:25:21.445Z,992.97
2022-12-19T09:26:21.447Z,992.96
2022-12-19T09:27:21.420Z,992.97
2022-12-19T09:28:28.685Z,992.92
2022-12-19T09:29:22.596Z,992.94
2022-12-19T09:30:21.407Z,992.84
2022-12-19T09:31:21.449Z,992.87
2022-12-19T09:32:21.378Z,992.82
2022-12-19T09:33:21.371Z,992.89
2022-12-19T09:34:22.019Z,992.84
2022-12-19T09:35:24.489Z,992.85
2022-12-19T09:36:22.341Z,992.79
2022-12-19T09:37:21.318Z,992.80
2022-12-19T09:38:21.311Z,992.84
2022-12-19T09:39:21.302Z,992.82
2022-12-19T09:40:21.308Z,992.87
2022-12-19T09:41:21.291Z,992.87
2022-12-19T09:42:21.288Z,992.85
2022-12-19T09:43:21.283Z,992.90
2022-12-19T09:44:21.248Z,992.85
2022-12-19T09:45:32.153Z,992.81
2022-12-19T09:46:22.253Z,992.82
2022-12-19T09:47:21.229Z,992.76
2022-12-19T09:48:23.793Z,992.79
2022-12-19T09:49:21.200Z,992.80
2022-12-19T09:50:21.191Z,992.81
2022-12-19T09:51:21.191Z,992.79
2022-12-19T09:52:21.213Z,992.76
2022-12-19T09:53:21.161Z,992.76
2022-12-19T09:54:21.181Z,992.76
2022-12-19T09:55:21.138Z,992.66
2022-12-19T09:56:21.156Z,992.64
2022-12-19T09:57:21.113Z,992.67
2022-12-19T09:58:21.099Z,992.72
2022-12-19T09:59:22.555Z,992.72
2022-12-19T10:00:22.231Z,992.69
2022-12-19T10:01:21.201Z,992.66
2022-12-19T10:02:21.235Z,992.69
2022-12-19T10:03:21.167Z,992.69
2022-12-19T10:04:21.063Z,992.74
2022-12-19T10:05:41.239Z,992.74
2022-12-19T10:07:11.538Z,992.70
2022-12-19T10:07:48.371Z,992.69
2022-12-19T10:08:22.015Z,992.66
2022-12-19T10:10:45.888Z,992.67
2022-12-19T10:12:36.393Z,992.69
2022-12-19T10:12:43.241Z,992.66
2022-12-19T10:12:45.180Z,992.65
2022-12-19T10:13:22.043Z,992.67
2022-12-19T10:14:20.941Z,992.64
2022-12-19T10:15:20.915Z,992.63
2022-12-19T10:16:20.950Z,992.58
2022-12-19T10:17:25.165Z,992.54
2022-12-19T10:18:20.917Z,992.51
2022-12-19T10:19:20.875Z,992.48
2022-12-19T10:20:20.907Z,992.44
2022-12-19T10:21:31.915Z,992.43
2022-12-19T10:22:21.885Z,992.47
2022-12-19T10:23:20.851Z,992.50
2022-12-19T10:24:20.870Z,992.44
2022-12-19T10:25:20.824Z,992.47
2022-12-19T10:26:20.848Z,992.51
2022-12-19T10:27:20.781Z,992.45
2022-12-19T10:28:20.807Z,992.36
2022-12-19T10:29:20.794Z,992.36
2022-12-19T10:30:20.778Z,992.38
2022-12-19T10:31:22.352Z,992.38
2022-12-19T10:32:20.762Z,992.53
2022-12-19T10:33:21.212Z,992.49
2022-12-19T10:34:20.751Z,992.44
2022-12-19T10:35:20.716Z,992.42
2022-12-19T10:36:20.718Z,992.46
2022-12-19T10:37:29.057Z,992.25
2022-12-19T10:38:21.707Z,992.28
2022-12-19T10:39:20.667Z,992.26
2022-12-19T10:40:28.527Z,992.26
2022-12-19T10:41:21.644Z,992.18
2022-12-19T10:42:20.637Z,992.17
2022-12-19T10:43:30.664Z,992.21
2022-12-19T10:44:21.677Z,992.18
2022-12-19T10:45:20.609Z,992.21
2022-12-19T10:46:20.652Z,992.21
2022-12-19T10:47:20.590Z,992.15
2022-12-19T10:48:22.547Z,992.19
2022-12-19T10:49:21.558Z,992.21
2022-12-19T10:50:20.548Z,992.17
2022-12-19T10:51:20.560Z,992.26
2022-12-19T10:52:20.543Z,992.18
2022-12-19T10:53:20.565Z,992.28
2022-12-19T10:54:20.577Z,992.27
2022-12-19T10:55:20.504Z,992.28
2022-12-19T10:56:20.500Z,992.26
2022-12-19T10:57:20.561Z,992.20
2022-12-19T10:58:20.485Z,992.21
2022-12-19T10:59:20.486Z,992.17
2022-12-19T11:00:20.455Z,992.15
2022-12-19T11:01:20.557Z,992.12
2022-12-19T11:02:20.608Z,992.13
2022-12-19T11:03:20.613Z,992.05
2022-12-19T11:04:20.395Z,992.02
2022-12-19T11:05:20.457Z,992.06
2022-12-19T11:06:20.422Z,991.91
2022-12-19T11:07:20.377Z,991.93
2022-12-19T11:08:20.365Z,991.85
2022-12-19T11:09:20.424Z,991.83
2022-12-19T11:11:57.932Z,991.85
2022-12-19T11:14:40.962Z,991.77
2022-12-19T11:16:24.132Z,991.83
2022-12-19T11:17:43.653Z,991.86
2022-12-19T11:17:51.049Z,991.75
2022-12-19T11:20:42.150Z,991.80
2022-12-19T11:20:50.040Z,991.82
2022-12-19T11:23:24.227Z,991.81
2022-12-19T11:27:53.102Z,991.87
2022-12-19T11:28:04.875Z,991.80
2022-12-19T11:29:34.222Z,991.82
2022-12-19T11:29:34.225Z,991.84
2022-12-19T11:29:36.581Z,991.84
2022-12-19T11:29:42.672Z,991.83
2022-12-19T11:29:54.648Z,991.79
2022-12-19T11:29:54.951Z,991.82
2022-12-19T11:29:55.168Z,991.79
2022-12-19T11:30:47.661Z,991.88
2022-12-19T11:30:48.852Z,991.85
2022-12-19T11:31:52.857Z,991.86
2022-12-19T11:32:31.986Z,991.78
2022-12-19T11:32:39.464Z,991.80
2022-12-19T11:33:21.188Z,991.76
2022-12-19T11:34:20.079Z,991.79
2022-12-19T11:35:20.629Z,991.72
2022-12-19T11:36:20.091Z,991.68
2022-12-19T11:37:20.041Z,991.70
2022-12-19T11:38:20.051Z,991.70
2022-12-19T11:39:20.044Z,991.70
2022-12-19T11:40:20.040Z,991.65
2022-12-19T11:41:20.002Z,991.51
2022-12-19T11:42:19.990Z,991.53
2022-12-19T11:44:20.991Z,991.45
2022-12-19T11:45:19.985Z,991.48
2022-12-19T11:46:22.247Z,991.47
2022-12-19T11:47:19.964Z,991.42
2022-12-19T11:48:19.941Z,991.41
2022-12-19T11:49:19.922Z,991.42
2022-12-19T11:50:19.951Z,991.44
2022-12-19T11:51:19.903Z,991.47
2022-12-19T11:52:54.185Z,991.47
2022-12-19T11:53:20.960Z,991.49
2022-12-19T11:54:19.872Z,991.43
2022-12-19T11:55:19.876Z,991.43
2022-12-19T11:56:19.881Z,991.45
2022-12-19T11:57:19.863Z,991.39
2022-12-19T11:58:19.849Z,991.38
2022-12-19T11:59:19.835Z,991.34
2022-12-19T12:00:19.801Z,991.29
2022-12-19T12:01:19.860Z,991.32
2022-12-19T12:02:19.793Z,991.32
2022-12-19T12:03:19.853Z,991.18
2022-12-19T12:04:19.841Z,991.21
2022-12-19T12:05:19.765Z,991.23
2022-12-19T12:06:19.784Z,991.16
2022-12-19T12:08:22.100Z,991.22
2022-12-19T12:09:57.671Z,991.24
2022-12-19T12:12:59.184Z,991.23
2022-12-19T12:14:16.325Z,991.27
2022-12-19T12:17:51.893Z,991.28
2022-12-19T12:18:59.247Z,991.30
2022-12-19T12:22:26.556Z,991.23
2022-12-19T12:24:08.923Z,991.23
2022-12-19T12:24:15.915Z,991.22
2022-12-19T12:30:56.268Z,991.12
2022-12-19T12:30:59.451Z,991.19
2022-12-19T12:31:04.170Z,991.19
2022-12-19T12:31:05.598Z,991.19
2022-12-19T12:31:05.781Z,991.19
2022-12-19T12:31:11.913Z,991.17
2022-12-19T12:31:18.380Z,991.15
2022-12-19T12:31:41.323Z,991.23
2022-12-19T12:31:45.111Z,991.20
2022-12-19T12:31:46.195Z,991.23
2022-12-19T12:31:49.896Z,991.03
2022-12-19T12:31:49.899Z,991.21
2022-12-19T12:31:50.784Z,991.05
2022-12-19T12:32:06.525Z,991.11
2022-12-19T12:35:16.247Z,991.10